CYHE

Details ICAO CYHE
Name Hope
Region Canada
Timezone America/Vancouver (UTC-8.0)
Plans Departing 2
Arriving 5
Stats Elevation 128 ft / 39 m (AMSL)
Location 49.366699° -121.483299°
Runways 2
Magnetic Variation 15.985° E
Sunrise 2017-12-17 15:58:09 UTC / 2017-12-17 07:58:09 Local
Sunset 2017-12-18 00:09:01 UTC / 2017-12-17 16:09:01 Local
Advertisement - Login to hide

Runways

ID Width Length Bearing (true) Bearing (mag) Surface Threshold Offset Overrun Length
07 250 ft / 76 m 3,964 ft / 1,208 m 89.99° 74.00° Grass 0 ft / 0 m 0 ft / 0 m
16 65 ft / 20 m 2,002 ft / 610 m 185.00° 169.01° Gravel 0 ft / 0 m 0 ft / 0 m
25 250 ft / 76 m 3,964 ft / 1,208 m 270.01° 254.02° Grass 0 ft / 0 m 0 ft / 0 m
34 65 ft / 20 m 2,002 ft / 610 m 5.00° 349.01° Gravel 0 ft / 0 m 0 ft / 0 m

Map

Weather


0- 5 10 15 20 25 30 35+ Temperature / ° C

Clouds and Precipitation
Forecast for 2017-12-17 18:00 UTC. Updated an hour ago

Ground ~20,000 ft ~40,000 ft Winds

METAR

CYHE 171330Z AUTO 26004KT 6SM -RA BR BKN016 OVC030 04/04 A3013 RMK SLP205

TAF

Not found
Warning: Do not use this data for real-world aviation or navigation. No guarantee of current accuracy is given.